LAX weather

Los Angeles International Airport
Los Angeles, California, United States

Public forecast

Using degrees Fahrenheit for public forecast. Weather courtesy of forecast.io.

METAR (pilot weather report)

Retrieved 2018/01/20 23:53 UTC (1 hour ago):

KLAX 202353Z 29010G20KT 10SM FEW047 FEW090 16/03 A3005 RMK AO2 SLP174 T01610033 10172 20144 53004

TAF (pilot weather forecast)

Forecast is more than 12 hours old.

Retrieved 2018/01/20 00:57 UTC (1 day ago):

TAF KLAX 202354Z 2100/2206 28017G25KT P6SM SKC FM210200 34010G18KT P6SM SKC FM210700 35006KT P6SM SCT250 FM210900 06005KT P6SM SCT250 FM212000 26011KT P6SM SCT250